Terminal Aerodrome Forecast
Issued by NWS Cleveland, OH

Home | Current Version | Previous Version | Graphics & Text | Print | Product List | Glossary On
Versions: 1 2 3 4 5 6 7 8 9 10 11 12 13 14
533
FTUS41 KCLE 231733
TAFCAK
TAF
KCAK 231733Z 2318/2418 13008KT P6SM SCT250
     FM240700 16009KT P6SM -SHRA OVC035
     FM241000 19016KT P6SM BKN040
     FM241500 20017G25KT P6SM BKN030=

USA.gov is the U.S. government's official web portal to all federal, state and local government web resources and services.